sensor_id;sensor_type;location;lat;lon;timestamp;pressure;altitude;pressure_sealevel;temperature;humidity
63708;BME280;67643;-34.198;22.084;2023-02-20T00:01:07;98493.73;;;19.90;52.47
63708;BME280;67643;-34.198;22.084;2023-02-20T00:03:36;98492.96;;;20.68;51.03
63708;BME280;67643;-34.198;22.084;2023-02-20T00:06:04;98484.34;;;20.38;51.66
63708;BME280;67643;-34.198;22.084;2023-02-20T00:08:33;98474.20;;;20.65;51.10
63708;BME280;67643;-34.198;22.084;2023-02-20T00:11:02;98468.92;;;20.44;51.65
63708;BME280;67643;-34.198;22.084;2023-02-20T00:13:30;98464.09;;;19.98;52.09
63708;BME280;67643;-34.198;22.084;2023-02-20T00:16:00;98456.69;;;20.51;51.67
63708;BME280;67643;-34.198;22.084;2023-02-20T00:18:29;98450.25;;;19.91;52.35
63708;BME280;67643;-34.198;22.084;2023-02-20T00:20:57;98447.99;;;21.13;50.22
63708;BME280;67643;-34.198;22.084;2023-02-20T00:23:25;98446.56;;;21.05;50.41
63708;BME280;67643;-34.198;22.084;2023-02-20T00:25:54;98442.94;;;20.44;51.30
63708;BME280;67643;-34.198;22.084;2023-02-20T00:28:22;98442.32;;;20.66;50.50
63708;BME280;67643;-34.198;22.084;2023-02-20T00:30:51;98440.19;;;20.67;50.94
63708;BME280;67643;-34.198;22.084;2023-02-20T00:33:19;98436.52;;;19.87;52.48
63708;BME280;67643;-34.198;22.084;2023-02-20T00:35:48;98432.45;;;20.31;51.63
63708;BME280;67643;-34.198;22.084;2023-02-20T00:38:16;98427.09;;;20.31;51.52
63708;BME280;67643;-34.198;22.084;2023-02-20T00:40:44;98410.13;;;19.94;52.35
63708;BME280;67643;-34.198;22.084;2023-02-20T00:43:13;98410.29;;;21.04;50.48
63708;BME280;67643;-34.198;22.084;2023-02-20T00:45:41;98408.12;;;20.87;50.57
63708;BME280;67643;-34.198;22.084;2023-02-20T00:48:10;98398.59;;;20.45;50.83
63708;BME280;67643;-34.198;22.084;2023-02-20T00:50:38;98390.98;;;20.05;51.50
63708;BME280;67643;-34.198;22.084;2023-02-20T00:53:07;98383.35;;;20.26;52.01
63708;BME280;67643;-34.198;22.084;2023-02-20T00:55:35;98383.92;;;20.15;52.32
63708;BME280;67643;-34.198;22.084;2023-02-20T00:58:03;98380.34;;;20.17;52.21
63708;BME280;67643;-34.198;22.084;2023-02-20T01:00:32;98380.94;;;20.00;52.53
63708;BME280;67643;-34.198;22.084;2023-02-20T01:03:00;98372.90;;;19.98;52.56
63708;BME280;67643;-34.198;22.084;2023-02-20T01:05:29;98372.08;;;20.76;51.60
63708;BME280;67643;-34.198;22.084;2023-02-20T01:07:58;98371.31;;;19.78;52.51
63708;BME280;67643;-34.198;22.084;2023-02-20T01:10:26;98369.73;;;20.13;52.18
63708;BME280;67643;-34.198;22.084;2023-02-20T01:12:55;98368.72;;;20.85;51.39
63708;BME280;67643;-34.198;22.084;2023-02-20T01:15:24;98364.34;;;19.63;53.19
63708;BME280;67643;-34.198;22.084;2023-02-20T01:17:52;98363.88;;;19.81;52.81
63708;BME280;67643;-34.198;22.084;2023-02-20T01:20:21;98361.69;;;20.19;52.13
63708;BME280;67643;-34.198;22.084;2023-02-20T01:22:49;98356.11;;;19.63;53.14
63708;BME280;67643;-34.198;22.084;2023-02-20T01:25:18;98356.56;;;19.64;53.49
63708;BME280;67643;-34.198;22.084;2023-02-20T01:27:46;98356.88;;;20.10;52.16
63708;BME280;67643;-34.198;22.084;2023-02-20T01:30:15;98356.06;;;20.16;53.03
63708;BME280;67643;-34.198;22.084;2023-02-20T01:32:44;98350.98;;;19.16;54.39
63708;BME280;67643;-34.198;22.084;2023-02-20T01:35:13;98353.93;;;19.59;53.65
63708;BME280;67643;-34.198;22.084;2023-02-20T01:37:42;98351.49;;;19.43;53.57
63708;BME280;67643;-34.198;22.084;2023-02-20T01:40:15;98353.77;;;20.37;52.04
63708;BME280;67643;-34.198;22.084;2023-02-20T01:42:44;98346.64;;;19.23;53.97
63708;BME280;67643;-34.198;22.084;2023-02-20T01:45:17;98345.17;;;18.34;55.69
63708;BME280;67643;-34.198;22.084;2023-02-20T01:47:46;98340.47;;;19.14;54.33
63708;BME280;67643;-34.198;22.084;2023-02-20T01:50:15;98346.46;;;20.48;51.38
63708;BME280;67643;-34.198;22.084;2023-02-20T01:52:50;98344.29;;;21.30;49.04
63708;BME280;67643;-34.198;22.084;2023-02-20T01:55:22;98342.77;;;20.31;50.30
63708;BME280;67643;-34.198;22.084;2023-02-20T01:57:56;98333.30;;;21.23;49.23
63708;BME280;67643;-34.198;22.084;2023-02-20T02:02:24;98328.76;;;20.11;50.75
63708;BME280;67643;-34.198;22.084;2023-02-20T02:04:55;98328.41;;;21.02;48.77
63708;BME280;67643;-34.198;22.084;2023-02-20T02:07:24;98332.48;;;21.70;48.35
63708;BME280;67643;-34.198;22.084;2023-02-20T02:09:55;98329.88;;;21.90;47.61
63708;BME280;67643;-34.198;22.084;2023-02-20T02:12:26;98321.11;;;20.87;49.06
63708;BME280;67643;-34.198;22.084;2023-02-20T02:14:55;98326.47;;;20.57;48.84
63708;BME280;67643;-34.198;22.084;2023-02-20T02:17:36;98332.54;;;21.70;48.03
63708;BME280;67643;-34.198;22.084;2023-02-20T02:22:51;98323.36;;;21.64;48.16
63708;BME280;67643;-34.198;22.084;2023-02-20T02:25:33;98319.27;;;21.43;47.27
63708;BME280;67643;-34.198;22.084;2023-02-20T02:30:52;98303.91;;;22.28;47.14
63708;BME280;67643;-34.198;22.084;2023-02-20T04:10:18;98240.22;;;17.01;59.42
63708;BME280;67643;-34.198;22.084;2023-02-20T04:12:50;98240.62;;;18.18;54.73
63708;BME280;67643;-34.198;22.084;2023-02-20T04:15:21;98232.52;;;19.39;51.31
63708;BME280;67643;-34.198;22.084;2023-02-20T04:17:54;98232.26;;;18.33;52.28
63708;BME280;67643;-34.198;22.084;2023-02-20T04:20:25;98234.54;;;18.97;51.02
63708;BME280;67643;-34.198;22.084;2023-02-20T04:22:57;98232.55;;;18.74;50.69
63708;BME280;67643;-34.198;22.084;2023-02-20T04:25:32;98236.48;;;18.51;50.88
63708;BME280;67643;-34.198;22.084;2023-02-20T04:28:05;98233.90;;;18.87;50.07
63708;BME280;67643;-34.198;22.084;2023-02-20T04:30:34;98227.70;;;20.22;48.50
63708;BME280;67643;-34.198;22.084;2023-02-20T04:33:02;98233.44;;;20.43;47.43
63708;BME280;67643;-34.198;22.084;2023-02-20T04:35:30;98233.38;;;19.45;48.03
63708;BME280;67643;-34.198;22.084;2023-02-20T04:37:59;98235.65;;;20.06;47.88
63708;BME280;67643;-34.198;22.084;2023-02-20T04:40:27;98239.11;;;19.69;48.09
63708;BME280;67643;-34.198;22.084;2023-02-20T04:42:56;98239.58;;;20.98;45.15
63708;BME280;67643;-34.198;22.084;2023-02-20T04:45:24;98244.07;;;20.02;46.23
63708;BME280;67643;-34.198;22.084;2023-02-20T04:47:53;98247.41;;;20.48;45.79
63708;BME280;67643;-34.198;22.084;2023-02-20T04:50:25;98244.77;;;20.74;45.21
63708;BME280;67643;-34.198;22.084;2023-02-20T04:52:54;98241.94;;;20.39;45.36
63708;BME280;67643;-34.198;22.084;2023-02-20T04:55:23;98246.77;;;20.02;46.76
63708;BME280;67643;-34.198;22.084;2023-02-20T04:57:53;98242.54;;;19.49;46.61
63708;BME280;67643;-34.198;22.084;2023-02-20T05:00:23;98240.79;;;20.37;45.40
63708;BME280;67643;-34.198;22.084;2023-02-20T05:02:52;98236.81;;;20.85;44.34
63708;BME280;67643;-34.198;22.084;2023-02-20T05:05:23;98246.59;;;20.90;44.19
63708;BME280;67643;-34.198;22.084;2023-02-20T05:07:55;98242.71;;;20.57;44.13
63708;BME280;67643;-34.198;22.084;2023-02-20T05:10:26;98237.74;;;20.82;43.38
63708;BME280;67643;-34.198;22.084;2023-02-20T05:12:55;98249.88;;;21.30;42.98
63708;BME280;67643;-34.198;22.084;2023-02-20T05:15:24;98255.94;;;20.88;43.12
63708;BME280;67643;-34.198;22.084;2023-02-20T05:17:53;98253.49;;;21.39;41.84
63708;BME280;67643;-34.198;22.084;2023-02-20T05:20:21;98253.12;;;21.17;43.14
63708;BME280;67643;-34.198;22.084;2023-02-20T05:22:49;98253.49;;;21.43;42.43
63708;BME280;67643;-34.198;22.084;2023-02-20T05:25:18;98250.58;;;21.83;40.38
63708;BME280;67643;-34.198;22.084;2023-02-20T05:27:46;98253.58;;;21.88;41.61
63708;BME280;67643;-34.198;22.084;2023-02-20T05:30:15;98250.56;;;21.46;41.10
63708;BME280;67643;-34.198;22.084;2023-02-20T05:32:43;98252.94;;;21.94;39.66
63708;BME280;67643;-34.198;22.084;2023-02-20T05:35:12;98259.28;;;22.06;38.93
63708;BME280;67643;-34.198;22.084;2023-02-20T05:37:40;98259.10;;;21.98;40.83
63708;BME280;67643;-34.198;22.084;2023-02-20T05:40:09;98256.74;;;22.13;38.74
63708;BME280;67643;-34.198;22.084;2023-02-20T05:42:38;98251.87;;;22.01;38.83
63708;BME280;67643;-34.198;22.084;2023-02-20T05:45:08;98256.77;;;22.16;39.39
63708;BME280;67643;-34.198;22.084;2023-02-20T05:47:37;98258.43;;;21.76;39.34
63708;BME280;67643;-34.198;22.084;2023-02-20T05:50:06;98262.20;;;22.04;38.68
63708;BME280;67643;-34.198;22.084;2023-02-20T05:52:34;98257.34;;;22.04;39.96
63708;BME280;67643;-34.198;22.084;2023-02-20T05:55:03;98257.91;;;21.69;39.74
63708;BME280;67643;-34.198;22.084;2023-02-20T05:57:31;98247.26;;;21.80;38.93
63708;BME280;67643;-34.198;22.084;2023-02-20T06:00:00;98243.57;;;21.69;40.42
63708;BME280;67643;-34.198;22.084;2023-02-20T06:02:31;98236.57;;;22.39;37.72
63708;BME280;67643;-34.198;22.084;2023-02-20T06:05:00;98248.21;;;22.31;37.30
63708;BME280;67643;-34.198;22.084;2023-02-20T06:07:28;98244.43;;;22.74;38.84
63708;BME280;67643;-34.198;22.084;2023-02-20T06:09:58;98247.46;;;22.08;38.99
63708;BME280;67643;-34.198;22.084;2023-02-20T06:12:27;98239.53;;;22.45;37.85
63708;BME280;67643;-34.198;22.084;2023-02-20T06:14:55;98246.36;;;22.32;39.28
63708;BME280;67643;-34.198;22.084;2023-02-20T06:17:24;98243.93;;;21.81;37.62
63708;BME280;67643;-34.198;22.084;2023-02-20T06:19:52;98237.69;;;21.97;39.05
63708;BME280;67643;-34.198;22.084;2023-02-20T06:22:22;98235.43;;;22.13;37.85
63708;BME280;67643;-34.198;22.084;2023-02-20T06:24:50;98227.44;;;22.15;36.86
63708;BME280;67643;-34.198;22.084;2023-02-20T06:27:19;98237.37;;;22.18;37.71
63708;BME280;67643;-34.198;22.084;2023-02-20T06:29:48;98245.53;;;22.23;37.82
63708;BME280;67643;-34.198;22.084;2023-02-20T06:32:18;98235.33;;;22.29;38.38
63708;BME280;67643;-34.198;22.084;2023-02-20T06:34:47;98234.10;;;22.60;38.34
63708;BME280;67643;-34.198;22.084;2023-02-20T06:37:17;98241.15;;;22.20;37.70
63708;BME280;67643;-34.198;22.084;2023-02-20T06:39:46;98243.98;;;22.75;37.69
63708;BME280;67643;-34.198;22.084;2023-02-20T06:42:14;98236.04;;;22.24;37.81
63708;BME280;67643;-34.198;22.084;2023-02-20T06:44:43;98232.55;;;22.11;38.07
63708;BME280;67643;-34.198;22.084;2023-02-20T06:47:11;98227.11;;;22.48;37.62
63708;BME280;67643;-34.198;22.084;2023-02-20T06:49:39;98210.61;;;22.40;37.01
63708;BME280;67643;-34.198;22.084;2023-02-20T06:52:08;98203.94;;;21.96;38.08
63708;BME280;67643;-34.198;22.084;2023-02-20T06:54:36;98194.07;;;22.58;37.12
63708;BME280;67643;-34.198;22.084;2023-02-20T06:57:05;98184.22;;;22.86;36.87
63708;BME280;67643;-34.198;22.084;2023-02-20T06:59:34;98180.93;;;22.47;37.85
63708;BME280;67643;-34.198;22.084;2023-02-20T07:02:02;98191.95;;;22.93;36.46
63708;BME280;67643;-34.198;22.084;2023-02-20T07:04:31;98194.66;;;22.54;36.87
63708;BME280;67643;-34.198;22.084;2023-02-20T07:06:59;98200.77;;;23.14;35.62
63708;BME280;67643;-34.198;22.084;2023-02-20T07:09:28;98214.85;;;23.15;36.18
63708;BME280;67643;-34.198;22.084;2023-02-20T07:11:57;98215.19;;;23.02;35.74
63708;BME280;67643;-34.198;22.084;2023-02-20T07:14:26;98215.16;;;22.69;36.56
63708;BME280;67643;-34.198;22.084;2023-02-20T07:16:54;98212.78;;;22.53;36.50
63708;BME280;67643;-34.198;22.084;2023-02-20T07:19:23;98212.93;;;22.58;36.57
63708;BME280;67643;-34.198;22.084;2023-02-20T07:21:51;98208.32;;;22.40;36.38
63708;BME280;67643;-34.198;22.084;2023-02-20T07:24:20;98213.55;;;22.67;35.50
63708;BME280;67643;-34.198;22.084;2023-02-20T07:26:48;98228.70;;;22.63;34.85
63708;BME280;67643;-34.198;22.084;2023-02-20T07:29:16;98239.00;;;22.17;35.11
63708;BME280;67643;-34.198;22.084;2023-02-20T07:31:45;98241.78;;;21.99;34.93
63708;BME280;67643;-34.198;22.084;2023-02-20T07:34:13;98252.39;;;22.34;34.83
63708;BME280;67643;-34.198;22.084;2023-02-20T07:36:42;98244.42;;;22.79;34.75
63708;BME280;67643;-34.198;22.084;2023-02-20T07:39:12;98256.15;;;22.00;36.30
63708;BME280;67643;-34.198;22.084;2023-02-20T07:41:41;98245.83;;;22.37;35.67
63708;BME280;67643;-34.198;22.084;2023-02-20T07:44:11;98230.39;;;23.16;34.78
63708;BME280;67643;-34.198;22.084;2023-02-20T07:46:39;98240.90;;;22.01;35.30
63708;BME280;67643;-34.198;22.084;2023-02-20T07:49:09;98247.26;;;22.71;34.67
63708;BME280;67643;-34.198;22.084;2023-02-20T07:51:37;98251.69;;;23.30;34.44
63708;BME280;67643;-34.198;22.084;2023-02-20T07:54:06;98251.01;;;22.14;35.30
63708;BME280;67643;-34.198;22.084;2023-02-20T07:56:34;98254.82;;;22.72;34.29
63708;BME280;67643;-34.198;22.084;2023-02-20T07:59:02;98246.03;;;21.62;35.75
63708;BME280;67643;-34.198;22.084;2023-02-20T08:01:31;98241.95;;;22.59;34.61
63708;BME280;67643;-34.198;22.084;2023-02-20T08:03:59;98242.27;;;22.69;34.60
63708;BME280;67643;-34.198;22.084;2023-02-20T08:06:28;98244.11;;;22.59;34.27
63708;BME280;67643;-34.198;22.084;2023-02-20T08:08:56;98234.15;;;22.66;34.39
63708;BME280;67643;-34.198;22.084;2023-02-20T08:11:26;98235.54;;;22.48;34.89
63708;BME280;67643;-34.198;22.084;2023-02-20T08:13:54;98240.06;;;22.84;34.21
63708;BME280;67643;-34.198;22.084;2023-02-20T08:16:23;98232.13;;;22.28;35.16
63708;BME280;67643;-34.198;22.084;2023-02-20T08:18:51;98233.29;;;22.90;34.45
63708;BME280;67643;-34.198;22.084;2023-02-20T08:21:20;98238.87;;;22.05;34.99
63708;BME280;67643;-34.198;22.084;2023-02-20T08:23:49;98230.48;;;22.75;34.38
63708;BME280;67643;-34.198;22.084;2023-02-20T08:26:18;98229.69;;;22.34;35.10
63708;BME280;67643;-34.198;22.084;2023-02-20T08:28:47;98222.62;;;22.55;34.57
63708;BME280;67643;-34.198;22.084;2023-02-20T08:31:15;98230.62;;;22.71;34.35
63708;BME280;67643;-34.198;22.084;2023-02-20T08:33:44;98229.30;;;22.46;34.74
63708;BME280;67643;-34.198;22.084;2023-02-20T08:36:12;98229.66;;;22.47;34.76
63708;BME280;67643;-34.198;22.084;2023-02-20T08:38:40;98223.07;;;23.01;33.93
63708;BME280;67643;-34.198;22.084;2023-02-20T08:41:11;98229.63;;;22.92;33.93
63708;BME280;67643;-34.198;22.084;2023-02-20T08:43:42;98222.31;;;23.15;33.64
63708;BME280;67643;-34.198;22.084;2023-02-20T08:46:11;98237.01;;;23.23;33.55
63708;BME280;67643;-34.198;22.084;2023-02-20T08:48:39;98238.16;;;23.64;33.75
63708;BME280;67643;-34.198;22.084;2023-02-20T08:51:08;98241.86;;;22.92;33.95
63708;BME280;67643;-34.198;22.084;2023-02-20T08:53:38;98228.89;;;22.87;33.83
63708;BME280;67643;-34.198;22.084;2023-02-20T08:56:07;98234.33;;;23.09;33.71
63708;BME280;67643;-34.198;22.084;2023-02-20T08:58:35;98228.20;;;23.20;33.68
63708;BME280;67643;-34.198;22.084;2023-02-20T09:01:04;98225.29;;;23.39;33.62
63708;BME280;67643;-34.198;22.084;2023-02-20T09:03:32;98229.04;;;22.62;34.41
63708;BME280;67643;-34.198;22.084;2023-02-20T09:06:01;98220.04;;;22.94;34.40
63708;BME280;67643;-34.198;22.084;2023-02-20T09:08:29;98213.03;;;22.92;34.27
63708;BME280;67643;-34.198;22.084;2023-02-20T09:10:59;98213.96;;;23.38;33.92
63708;BME280;67643;-34.198;22.084;2023-02-20T09:13:28;98216.02;;;23.66;33.93
63708;BME280;67643;-34.198;22.084;2023-02-20T09:15:57;98221.13;;;23.25;34.56
63708;BME280;67643;-34.198;22.084;2023-02-20T09:18:26;98214.62;;;23.48;34.93
63708;BME280;67643;-34.198;22.084;2023-02-20T09:20:54;98218.67;;;23.17;35.40
63708;BME280;67643;-34.198;22.084;2023-02-20T09:23:22;98224.30;;;23.29;33.69
63708;BME280;67643;-34.198;22.084;2023-02-20T09:25:51;98216.67;;;23.36;33.38
63708;BME280;67643;-34.198;22.084;2023-02-20T09:28:20;98220.63;;;23.21;33.56
63708;BME280;67643;-34.198;22.084;2023-02-20T09:30:49;98225.60;;;23.62;33.11
63708;BME280;67643;-34.198;22.084;2023-02-20T09:33:17;98237.94;;;23.55;32.89
63708;BME280;67643;-34.198;22.084;2023-02-20T09:35:46;98238.69;;;23.39;32.66
63708;BME280;67643;-34.198;22.084;2023-02-20T09:38:15;98241.93;;;23.73;32.03
63708;BME280;67643;-34.198;22.084;2023-02-20T09:40:43;98253.41;;;23.59;31.68
63708;BME280;67643;-34.198;22.084;2023-02-20T09:43:20;98242.17;;;23.98;31.11
63708;BME280;67643;-34.198;22.084;2023-02-20T09:45:57;98248.60;;;23.76;31.78
63708;BME280;67643;-34.198;22.084;2023-02-20T09:48:34;98265.87;;;23.62;31.96
63708;BME280;67643;-34.198;22.084;2023-02-20T09:51:11;98256.80;;;23.43;31.76
63708;BME280;67643;-34.198;22.084;2023-02-20T09:53:49;98265.29;;;23.54;31.63
63708;BME280;67643;-34.198;22.084;2023-02-20T09:56:22;98265.02;;;23.86;31.11
63708;BME280;67643;-34.198;22.084;2023-02-20T09:58:56;98281.92;;;23.72;31.55
63708;BME280;67643;-34.198;22.084;2023-02-20T12:07:36;98646.67;;;19.39;56.32
63708;BME280;67643;-34.198;22.084;2023-02-20T12:10:20;98656.88;;;20.41;52.20
63708;BME280;67643;-34.198;22.084;2023-02-20T12:12:51;98651.53;;;21.51;49.43
63708;BME280;67643;-34.198;22.084;2023-02-20T12:15:24;98654.51;;;21.23;48.89
63708;BME280;67643;-34.198;22.084;2023-02-20T12:18:09;98660.24;;;21.33;48.71
63708;BME280;67643;-34.198;22.084;2023-02-20T12:20:46;98660.20;;;21.71;48.12
63708;BME280;67643;-34.198;22.084;2023-02-20T12:23:25;98656.47;;;22.91;45.84
63708;BME280;67643;-34.198;22.084;2023-02-20T12:26:04;98666.17;;;21.08;47.58
63708;BME280;67643;-34.198;22.084;2023-02-20T12:28:43;98663.20;;;21.15;47.32
63708;BME280;67643;-34.198;22.084;2023-02-20T12:31:25;98656.17;;;21.66;46.36
63708;BME280;67643;-34.198;22.084;2023-02-20T12:34:10;98658.31;;;22.32;44.77
63708;BME280;67643;-34.198;22.084;2023-02-20T12:36:49;98656.03;;;22.34;45.54
63708;BME280;67643;-34.198;22.084;2023-02-20T12:39:30;98667.92;;;22.14;45.41
63708;BME280;67643;-34.198;22.084;2023-02-20T15:23:46;98941.24;;;20.22;43.21
63708;BME280;67643;-34.198;22.084;2023-02-20T15:26:36;98943.17;;;20.65;43.58
63708;BME280;67643;-34.198;22.084;2023-02-20T15:29:18;98949.98;;;21.43;42.72
63708;BME280;67643;-34.198;22.084;2023-02-20T15:31:55;98947.91;;;20.98;42.00
63708;BME280;67643;-34.198;22.084;2023-02-20T15:34:26;98961.84;;;19.92;44.17
63708;BME280;67643;-34.198;22.084;2023-02-20T15:36:55;98973.72;;;19.64;44.40
63708;BME280;67643;-34.198;22.084;2023-02-20T15:39:25;98973.95;;;20.27;43.43
63708;BME280;67643;-34.198;22.084;2023-02-20T15:41:53;98971.66;;;20.93;42.89
63708;BME280;67643;-34.198;22.084;2023-02-20T15:44:22;98986.16;;;20.14;44.28
63708;BME280;67643;-34.198;22.084;2023-02-20T15:46:50;98982.51;;;20.64;43.44
63708;BME280;67643;-34.198;22.084;2023-02-20T15:49:19;98985.68;;;20.26;43.58
63708;BME280;67643;-34.198;22.084;2023-02-20T15:51:47;98989.28;;;20.58;43.41
63708;BME280;67643;-34.198;22.084;2023-02-20T15:54:18;98994.39;;;20.29;43.23
63708;BME280;67643;-34.198;22.084;2023-02-20T15:56:47;98998.86;;;19.97;44.15
63708;BME280;67643;-34.198;22.084;2023-02-20T15:59:15;98999.50;;;20.78;43.12
63708;BME280;67643;-34.198;22.084;2023-02-20T16:01:43;99009.40;;;21.52;41.90
63708;BME280;67643;-34.198;22.084;2023-02-20T16:04:14;99013.57;;;21.68;41.66
63708;BME280;67643;-34.198;22.084;2023-02-20T16:06:43;99016.23;;;21.88;41.15
63708;BME280;67643;-34.198;22.084;2023-02-20T16:09:12;99025.14;;;21.63;41.48
63708;BME280;67643;-34.198;22.084;2023-02-20T16:11:42;99037.98;;;21.33;41.38
63708;BME280;67643;-34.198;22.084;2023-02-20T16:14:14;99038.82;;;21.60;41.35
63708;BME280;67643;-34.198;22.084;2023-02-20T16:16:44;99042.15;;;21.55;40.68
63708;BME280;67643;-34.198;22.084;2023-02-20T16:19:15;99055.08;;;21.66;41.30
63708;BME280;67643;-34.198;22.084;2023-02-20T16:21:44;99061.93;;;21.71;40.89
63708;BME280;67643;-34.198;22.084;2023-02-20T16:24:14;99074.78;;;21.70;40.78
63708;BME280;67643;-34.198;22.084;2023-02-20T16:26:45;99082.15;;;20.95;41.22
63708;BME280;67643;-34.198;22.084;2023-02-20T16:29:18;99089.49;;;21.07;41.04
63708;BME280;67643;-34.198;22.084;2023-02-20T16:32:21;99087.14;;;21.48;40.64
63708;BME280;67643;-34.198;22.084;2023-02-20T16:34:52;99094.90;;;21.52;40.79
63708;BME280;67643;-34.198;22.084;2023-02-20T16:37:22;99097.79;;;21.92;40.53
63708;BME280;67643;-34.198;22.084;2023-02-20T16:39:51;99108.38;;;21.55;40.24
63708;BME280;67643;-34.198;22.084;2023-02-20T16:42:24;99113.68;;;21.36;40.00
63708;BME280;67643;-34.198;22.084;2023-02-20T16:44:54;99118.67;;;20.59;41.12
63708;BME280;67643;-34.198;22.084;2023-02-20T16:47:24;99131.26;;;20.86;41.74
63708;BME280;67643;-34.198;22.084;2023-02-20T16:49:53;99136.14;;;20.14;42.10
63708;BME280;67643;-34.198;22.084;2023-02-20T16:52:25;99140.64;;;20.15;43.13
63708;BME280;67643;-34.198;22.084;2023-02-20T16:54:54;99141.89;;;19.86;43.22
63708;BME280;67643;-34.198;22.084;2023-02-20T16:57:24;99146.03;;;20.63;42.41
63708;BME280;67643;-34.198;22.084;2023-02-20T16:59:55;99149.07;;;20.81;42.70
63708;BME280;67643;-34.198;22.084;2023-02-20T17:02:26;99163.10;;;20.97;42.87
63708;BME280;67643;-34.198;22.084;2023-02-20T17:04:57;99167.60;;;21.59;42.60
63708;BME280;67643;-34.198;22.084;2023-02-20T17:07:26;99178.48;;;21.71;42.84
63708;BME280;67643;-34.198;22.084;2023-02-20T17:09:54;99179.26;;;21.87;42.74
63708;BME280;67643;-34.198;22.084;2023-02-20T17:12:24;99185.69;;;21.79;42.75
63708;BME280;67643;-34.198;22.084;2023-02-20T17:14:53;99183.97;;;21.66;42.60
63708;BME280;67643;-34.198;22.084;2023-02-20T17:17:22;99196.41;;;21.87;42.86
63708;BME280;67643;-34.198;22.084;2023-02-20T17:19:50;99209.62;;;21.47;43.15
63708;BME280;67643;-34.198;22.084;2023-02-20T17:22:20;99219.23;;;21.70;43.02
63708;BME280;67643;-34.198;22.084;2023-02-20T17:24:50;99225.89;;;21.57;42.66
63708;BME280;67643;-34.198;22.084;2023-02-20T17:27:19;99231.87;;;21.54;42.41
63708;BME280;67643;-34.198;22.084;2023-02-20T17:29:47;99242.66;;;21.78;42.01
63708;BME280;67643;-34.198;22.084;2023-02-20T17:32:16;99246.93;;;21.99;41.71
63708;BME280;67643;-34.198;22.084;2023-02-20T17:34:45;99253.19;;;21.49;41.69
63708;BME280;67643;-34.198;22.084;2023-02-20T17:37:14;99257.15;;;21.29;40.96
63708;BME280;67643;-34.198;22.084;2023-02-20T17:39:42;99266.30;;;21.35;41.30
63708;BME280;67643;-34.198;22.084;2023-02-20T17:42:11;99274.80;;;21.44;40.92
63708;BME280;67643;-34.198;22.084;2023-02-20T17:44:39;99283.28;;;21.44;40.58
63708;BME280;67643;-34.198;22.084;2023-02-20T17:47:08;99292.36;;;21.40;40.23
63708;BME280;67643;-34.198;22.084;2023-02-20T17:49:37;99292.01;;;20.88;40.63
63708;BME280;67643;-34.198;22.084;2023-02-20T17:52:05;99299.17;;;21.12;40.31
63708;BME280;67643;-34.198;22.084;2023-02-20T17:54:34;99305.13;;;21.28;39.73
63708;BME280;67643;-34.198;22.084;2023-02-20T17:57:03;99310.32;;;21.27;39.13
63708;BME280;67643;-34.198;22.084;2023-02-20T17:59:32;99310.55;;;21.31;38.71
63708;BME280;67643;-34.198;22.084;2023-02-20T18:02:04;99314.33;;;21.41;38.73
63708;BME280;67643;-34.198;22.084;2023-02-20T18:04:33;99313.24;;;21.39;37.80
63708;BME280;67643;-34.198;22.084;2023-02-20T18:07:03;99320.81;;;21.53;37.57
